Time;durP1;ratioP1;P1;durP2;ratioP2;P2;SDS_P1;SDS_P2;PMS_P1;PMS_P2;Temp;Humidity;BMP_temperature;BMP_pressure;BME280_temperature;BME280_humidity;BME280_pressure;Samples;Min_cycle;Max_cycle;Signal;HPM_P1;HPM_P2
2023/06/14 05:44:59;;;;;;;5.67;5.17;;;;;;;;;;6219716;22;20987;31
2023/06/14 05:47:27;;;;;;;6.20;5.70;;;;;;;;;;6217519;23;20295;-80
2023/06/14 05:49:53;;;;;;;6.35;5.75;;;;;;;;;;6217718;23;20005;-80
2023/06/14 05:52:18;;;;;;;7.20;6.32;;;;;;;;;;6217439;23;20020;-80
2023/06/14 05:54:44;;;;;;;6.28;5.68;;;;;;;;;;6218760;23;20004;-83
2023/06/14 05:57:10;;;;;;;6.95;5.78;;;;;;;;;;6247372;23;20007;-80
2023/06/14 05:59:36;;;;;;;5.47;4.97;;;;;;;;;;6247193;23;20039;-78
2023/06/14 06:02:01;;;;;;;7.60;5.13;;;;;;;;;;6247309;23;20051;-79
2023/06/14 06:04:27;;;;;;;5.82;5.32;;;;;;;;;;6247457;22;20323;-78
2023/06/14 06:06:52;;;;;;;6.72;6.03;;;;;;;;;;6247350;23;20010;-84
2023/06/14 09:26:27;;;;;;;4.68;4.28;;;;;;;;;;6305158;22;20023;-80
2023/06/14 09:28:53;;;;;;;5.90;4.32;;;;;;;;;;6309316;22;20445;-78
2023/06/14 09:31:20;;;;;;;5.72;5.15;;;;;;;;;;6308649;22;20118;-78
2023/06/14 09:33:48;;;;;;;4.32;4.03;;;;;;;;;;6309394;22;20007;-79
2023/06/14 09:36:18;;;;;;;5.10;4.63;;;;;;;;;;6309224;22;20078;-79
2023/06/14 09:38:54;;;;;;;4.45;4.05;;;;;;;;;;6309540;22;20031;-79
2023/06/14 09:41:19;;;;;;;4.15;3.75;;;;;;;;;;6309592;22;20070;-80
2023/06/14 09:43:48;;;;;;;4.70;4.20;;;;;;;;;;6308890;22;19999;-79
2023/06/14 09:46:13;;;;;;;4.68;4.28;;;;;;;;;;6309361;22;20007;-78
2023/06/14 09:48:42;;;;;;;4.80;4.30;;;;;;;;;;6307483;22;20007;-79
2023/06/14 09:51:10;;;;;;;4.75;4.07;;;;;;;;;;6309177;22;20000;-79
2023/06/14 09:53:37;;;;;;;4.93;4.53;;;;;;;;;;6308540;22;20425;-82
2023/06/14 09:56:05;;;;;;;5.45;4.85;;;;;;;;;;6309038;22;20082;-81
2023/06/14 09:58:33;;;;;;;10.25;5.35;;;;;;;;;;6309192;22;20026;-79
2023/06/14 10:00:59;;;;;;;10.88;5.18;;;;;;;;;;6308968;22;20074;-80
2023/06/14 10:03:28;;;;;;;7.55;5.22;;;;;;;;;;6309775;22;20038;-79
2023/06/14 10:06:01;;;;;;;7.93;5.35;;;;;;;;;;6310245;22;20030;-77
2023/06/14 10:08:27;;;;;;;7.40;5.15;;;;;;;;;;6308630;22;20425;-79
2023/06/14 10:10:56;;;;;;;6.97;5.05;;;;;;;;;;6308646;22;20053;-81
2023/06/14 10:13:21;;;;;;;5.82;5.22;;;;;;;;;;6308986;22;20010;-79
2023/06/14 10:16:09;;;;;;;5.15;4.57;;;;;;;;;;6308994;22;20007;-79
2023/06/14 10:18:42;;;;;;;6.07;5.50;;;;;;;;;;6309083;22;20003;-83
2023/06/14 10:21:31;;;;;;;5.40;4.90;;;;;;;;;;6309020;22;20074;-81
2023/06/14 10:24:03;;;;;;;6.00;5.40;;;;;;;;;;6308613;22;20384;-81
2023/06/14 10:26:28;;;;;;;5.75;5.22;;;;;;;;;;6308354;22;20019;-81
2023/06/14 10:28:57;;;;;;;6.80;5.68;;;;;;;;;;6308472;22;20040;-81
2023/06/14 10:31:23;;;;;;;5.78;4.90;;;;;;;;;;6308428;22;19999;-84
2023/06/14 10:33:55;;;;;;;5.20;4.70;;;;;;;;;;6308299;22;20040;-82
2023/06/14 10:36:32;;;;;;;4.65;4.25;;;;;;;;;;6308388;22;20007;-82
2023/06/14 10:39:06;;;;;;;5.40;4.15;;;;;;;;;;6308346;22;20014;-83
2023/06/14 10:41:35;;;;;;;5.20;4.80;;;;;;;;;;6307259;22;20003;-83
2023/06/14 10:44:13;;;;;;;6.10;4.78;;;;;;;;;;6308239;22;20000;-80
2023/06/14 10:46:48;;;;;;;5.45;4.80;;;;;;;;;;6306727;22;20014;-82
2023/06/14 10:49:36;;;;;;;5.38;4.57;;;;;;;;;;6308618;22;20007;-80
2023/06/14 10:52:02;;;;;;;4.80;4.30;;;;;;;;;;6308649;22;20003;-81
2023/06/14 10:54:28;;;;;;;4.70;4.30;;;;;;;;;;6308378;22;20003;-81
2023/06/14 10:56:54;;;;;;;4.35;4.03;;;;;;;;;;6308234;22;20422;-81
2023/06/14 10:59:20;;;;;;;4.38;3.97;;;;;;;;;;6308318;22;20418;-81
2023/06/14 11:02:05;;;;;;;4.65;4.10;;;;;;;;;;6308397;22;20003;-83
2023/06/14 11:04:47;;;;;;;4.95;4.18;;;;;;;;;;6308306;22;20003;-83
2023/06/14 11:07:34;;;;;;;5.85;4.28;;;;;;;;;;6308235;22;20003;-83
2023/06/14 11:10:18;;;;;;;4.63;4.22;;;;;;;;;;6308168;22;20003;-84
2023/06/14 11:12:47;;;;;;;5.22;4.40;;;;;;;;;;6308211;22;19999;-83
2023/06/14 11:15:13;;;;;;;5.75;5.10;;;;;;;;;;6306739;22;20011;-83
2023/06/14 11:17:39;;;;;;;5.70;5.20;;;;;;;;;;6308219;22;20053;-83
2023/06/14 11:20:15;;;;;;;5.40;4.90;;;;;;;;;;6308312;22;20376;-83
2023/06/14 11:22:44;;;;;;;5.40;4.95;;;;;;;;;;6308041;22;20402;-83
2023/06/14 11:25:11;;;;;;;6.40;5.80;;;;;;;;;;6308446;22;20003;-83
2023/06/14 11:27:36;;;;;;;5.72;4.63;;;;;;;;;;6308175;22;20088;-83
2023/06/14 11:30:02;;;;;;;7.47;5.57;;;;;;;;;;6308332;22;20318;-83
2023/06/14 11:32:28;;;;;;;7.28;5.07;;;;;;;;;;6307850;22;19999;-82
2023/06/14 11:34:53;;;;;;;6.57;5.18;;;;;;;;;;6308400;22;20032;-82
2023/06/14 11:37:19;;;;;;;6.88;6.07;;;;;;;;;;6308037;22;20330;-79
2023/06/14 11:39:45;;;;;;;9.48;5.45;;;;;;;;;;6308115;22;20073;-82
2023/06/14 11:42:17;;;;;;;7.30;5.55;;;;;;;;;;6308008;22;20022;-81
2023/06/14 11:44:46;;;;;;;10.10;6.00;;;;;;;;;;6307854;22;20330;-81
2023/06/14 16:55:21;;;;;;;6.65;6.03;;;;;;;;;;6305684;22;20007;-81
2023/06/14 16:57:46;;;;;;;7.18;5.78;;;;;;;;;;6309586;22;20011;-84
2023/06/14 17:00:12;;;;;;;6.50;5.90;;;;;;;;;;6309281;22;20005;-82
2023/06/14 17:02:38;;;;;;;7.03;6.32;;;;;;;;;;6309414;22;20010;-82
2023/06/14 17:05:04;;;;;;;5.72;5.20;;;;;;;;;;6309622;22;20003;-82
2023/06/14 17:07:30;;;;;;;6.00;5.50;;;;;;;;;;6309504;22;20014;-79
2023/06/14 17:09:55;;;;;;;6.30;5.70;;;;;;;;;;6309417;22;20371;-79
2023/06/14 17:12:21;;;;;;;5.95;5.35;;;;;;;;;;6309177;22;20102;-79
2023/06/14 17:14:46;;;;;;;6.35;5.85;;;;;;;;;;6309635;22;20000;-87
2023/06/14 17:17:12;;;;;;;7.97;6.57;;;;;;;;;;6309579;22;20031;-80
2023/06/14 17:19:37;;;;;;;7.43;6.72;;;;;;;;;;6309647;22;20000;-82
2023/06/14 17:22:03;;;;;;;6.60;6.00;;;;;;;;;;6309265;22;20010;-79
2023/06/14 17:24:28;;;;;;;6.65;5.47;;;;;;;;;;6309208;22;20077;-84
2023/06/14 17:26:56;;;;;;;5.55;5.05;;;;;;;;;;6309057;22;20074;-81
2023/06/14 17:29:23;;;;;;;6.20;5.70;;;;;;;;;;6309602;22;20070;-81
2023/06/14 17:31:49;;;;;;;6.88;5.85;;;;;;;;;;6308897;22;19999;-80
2023/06/14 17:34:14;;;;;;;7.13;5.90;;;;;;;;;;6309224;22;20003;-80
2023/06/14 17:36:40;;;;;;;5.68;5.18;;;;;;;;;;6309195;22;20018;-85
2023/06/14 17:39:05;;;;;;;6.22;5.63;;;;;;;;;;6308983;22;20368;-87
2023/06/14 17:41:31;;;;;;;6.13;5.63;;;;;;;;;;6308886;22;19999;-83
2023/06/14 17:43:56;;;;;;;5.97;5.47;;;;;;;;;;6309228;22;20407;-80
2023/06/14 17:46:22;;;;;;;6.90;5.13;;;;;;;;;;6307681;22;20029;-83
2023/06/14 17:48:47;;;;;;;5.72;5.22;;;;;;;;;;6309147;22;20030;-83
2023/06/14 17:51:15;;;;;;;5.78;5.18;;;;;;;;;;6308861;22;20003;-81
2023/06/14 17:53:40;;;;;;;5.85;5.35;;;;;;;;;;6309093;22;20007;-79
2023/06/14 17:56:06;;;;;;;5.55;4.95;;;;;;;;;;6308669;22;20007;-80
2023/06/14 17:58:31;;;;;;;7.68;5.53;;;;;;;;;;6307003;22;20007;-83
2023/06/14 18:00:57;;;;;;;5.50;5.00;;;;;;;;;;6309075;22;20029;-80
2023/06/14 18:03:22;;;;;;;5.85;5.22;;;;;;;;;;6309187;22;20026;-80
2023/06/14 18:05:47;;;;;;;7.75;5.43;;;;;;;;;;6309290;22;20487;-80
2023/06/14 18:08:13;;;;;;;9.05;5.40;;;;;;;;;;6309136;22;20033;-87
2023/06/14 18:10:40;;;;;;;6.60;5.05;;;;;;;;;;6308737;22;20030;-80
2023/06/14 18:13:06;;;;;;;5.85;5.25;;;;;;;;;;6309153;22;20053;-87
2023/06/14 18:15:31;;;;;;;6.20;5.60;;;;;;;;;;6308124;22;20010;-80
2023/06/14 18:17:57;;;;;;;5.78;5.22;;;;;;;;;;6309102;22;20078;-80
2023/06/14 18:20:23;;;;;;;5.75;5.15;;;;;;;;;;6308453;22;20041;-83
2023/06/14 18:22:49;;;;;;;5.05;4.55;;;;;;;;;;6308811;22;20007;-82
2023/06/14 18:25:14;;;;;;;5.68;4.90;;;;;;;;;;6308369;22;20010;-88
2023/06/14 18:27:40;;;;;;;5.75;5.25;;;;;;;;;;6309487;22;20010;-83
2023/06/14 18:30:07;;;;;;;5.30;4.90;;;;;;;;;;6309058;22;20003;-82
2023/06/14 18:32:35;;;;;;;6.30;5.75;;;;;;;;;;6308403;22;19999;-86
2023/06/14 18:35:01;;;;;;;7.50;6.75;;;;;;;;;;6308768;22;20003;-87
2023/06/14 18:37:26;;;;;;;7.63;6.70;;;;;;;;;;6307422;22;20003;-81
2023/06/14 18:39:53;;;;;;;5.90;5.40;;;;;;;;;;6308716;22;20004;-81
2023/06/14 18:42:18;;;;;;;6.35;5.50;;;;;;;;;;6308456;22;20003;-83
2023/06/14 18:44:44;;;;;;;5.88;5.28;;;;;;;;;;6309707;22;19999;-80
2023/06/14 18:47:10;;;;;;;5.28;4.85;;;;;;;;;;6309090;22;20007;-83
2023/06/14 18:49:36;;;;;;;6.50;5.90;;;;;;;;;;6309064;22;19999;-81
2023/06/14 18:52:02;;;;;;;6.25;5.75;;;;;;;;;;6309718;22;20061;-80
2023/06/14 18:54:27;;;;;;;7.03;6.07;;;;;;;;;;6307781;22;20007;-80
2023/06/14 18:56:53;;;;;;;7.10;6.05;;;;;;;;;;6308278;22;20074;-83
2023/06/14 18:59:18;;;;;;;7.57;6.40;;;;;;;;;;6308834;22;20019;-90
2023/06/14 19:01:44;;;;;;;5.88;5.30;;;;;;;;;;6308203;22;20049;-85
2023/06/14 19:04:09;;;;;;;8.40;5.82;;;;;;;;;;6308422;22;20082;-85
2023/06/14 19:06:35;;;;;;;8.48;5.20;;;;;;;;;;6308581;22;20000;-86
2023/06/14 19:09:00;;;;;;;5.05;4.50;;;;;;;;;;6308317;22;20014;-85
2023/06/14 19:11:26;;;;;;;6.32;5.18;;;;;;;;;;6308557;22;20010;-86
2023/06/14 19:13:51;;;;;;;5.25;4.85;;;;;;;;;;6308298;22;20333;-83
2023/06/14 19:16:16;;;;;;;6.68;5.63;;;;;;;;;;6308046;22;20074;-86
2023/06/14 19:18:42;;;;;;;5.88;5.38;;;;;;;;;;6308043;22;19995;-85
2023/06/14 19:21:07;;;;;;;6.28;5.68;;;;;;;;;;6308258;22;20015;-87
2023/06/14 19:23:33;;;;;;;6.40;5.22;;;;;;;;;;6308137;22;19999;-80
2023/06/14 19:25:59;;;;;;;5.65;5.15;;;;;;;;;;6307843;22;20003;-81
2023/06/14 19:28:25;;;;;;;7.88;5.07;;;;;;;;;;6308247;22;20407;-85
2023/06/14 19:30:51;;;;;;;5.28;4.78;;;;;;;;;;6308151;22;20003;-81
2023/06/14 19:33:17;;;;;;;5.72;5.20;;;;;;;;;;6307998;22;20307;-79
2023/06/14 19:35:43;;;;;;;5.68;5.03;;;;;;;;;;6308509;22;20003;-83
2023/06/14 19:38:08;;;;;;;5.70;5.07;;;;;;;;;;6308457;22;20011;-81
2023/06/14 19:40:34;;;;;;;8.48;4.93;;;;;;;;;;6308386;22;20003;-78
2023/06/14 19:42:59;;;;;;;5.00;4.60;;;;;;;;;;6308455;22;20035;-84
2023/06/14 19:45:25;;;;;;;5.32;4.70;;;;;;;;;;6308073;22;20010;-85
2023/06/14 19:47:50;;;;;;;5.35;4.85;;;;;;;;;;6308148;22;20053;-82
2023/06/14 19:50:16;;;;;;;6.03;5.43;;;;;;;;;;6308121;22;20010;-87
2023/06/14 19:52:41;;;;;;;6.72;6.13;;;;;;;;;;6308208;22;20074;-81
2023/06/14 19:55:07;;;;;;;6.57;5.63;;;;;;;;;;6307532;22;20007;-86
2023/06/14 19:57:33;;;;;;;5.55;5.05;;;;;;;;;;6307978;22;20076;-81
2023/06/14 19:59:59;;;;;;;6.50;5.30;;;;;;;;;;6308409;22;20009;-83
2023/06/14 20:02:25;;;;;;;6.07;5.47;;;;;;;;;;6307772;22;20008;-87
2023/06/14 20:04:50;;;;;;;6.40;5.75;;;;;;;;;;6306151;22;19999;-79
2023/06/14 20:07:16;;;;;;;6.20;5.65;;;;;;;;;;6307864;22;20054;-80
2023/06/14 20:09:41;;;;;;;6.43;5.82;;;;;;;;;;6308003;22;20004;-79
2023/06/14 20:12:07;;;;;;;6.72;6.10;;;;;;;;;;6307937;22;20406;-85
2023/06/14 20:14:33;;;;;;;6.60;6.00;;;;;;;;;;6308122;22;20003;-79
2023/06/14 20:16:58;;;;;;;6.65;5.85;;;;;;;;;;6306265;22;20015;-79
2023/06/14 20:19:24;;;;;;;7.82;6.57;;;;;;;;;;6306348;22;20438;-79
2023/06/14 20:21:49;;;;;;;9.65;6.43;;;;;;;;;;6307378;22;20003;-79
2023/06/14 20:24:15;;;;;;;7.20;6.47;;;;;;;;;;6307935;22;20007;-78
2023/06/14 20:26:40;;;;;;;7.10;5.97;;;;;;;;;;6307650;22;20003;-79
2023/06/14 20:29:06;;;;;;;7.72;6.45;;;;;;;;;;6308204;22;20373;-80
2023/06/14 20:31:31;;;;;;;6.32;5.72;;;;;;;;;;6307472;22;20074;-82
2023/06/14 20:33:57;;;;;;;6.72;6.07;;;;;;;;;;6307757;22;20010;-82
2023/06/14 20:36:22;;;;;;;6.00;5.35;;;;;;;;;;6307353;22;20003;-81
2023/06/14 20:38:48;;;;;;;6.18;5.57;;;;;;;;;;6309038;22;20003;-90
2023/06/14 20:41:14;;;;;;;5.70;5.20;;;;;;;;;;6309356;22;19999;-88
2023/06/14 20:43:42;;;;;;;6.68;5.45;;;;;;;;;;6309709;22;20023;-89
2023/06/14 20:46:08;;;;;;;6.68;6.07;;;;;;;;;;6283114;22;20081;-82
2023/06/14 20:48:34;;;;;;;7.85;5.93;;;;;;;;;;6309285;22;19999;-79
2023/06/14 20:51:00;;;;;;;6.93;6.22;;;;;;;;;;6309206;22;20023;-79
2023/06/14 20:53:25;;;;;;;6.10;5.55;;;;;;;;;;6307937;22;20082;-82
2023/06/14 20:55:51;;;;;;;7.13;6.25;;;;;;;;;;6309302;22;20019;-88
2023/06/14 20:58:16;;;;;;;7.50;6.30;;;;;;;;;;6309378;22;20033;-79
2023/06/14 21:00:44;;;;;;;6.85;5.95;;;;;;;;;;6309350;22;20007;-80
2023/06/14 21:03:10;;;;;;;7.07;6.40;;;;;;;;;;6309434;22;19999;-80
2023/06/14 21:05:36;;;;;;;7.15;6.45;;;;;;;;;;6309408;22;20003;-80
2023/06/14 21:08:01;;;;;;;6.85;6.10;;;;;;;;;;6309124;22;20083;-79
2023/06/14 21:10:30;;;;;;;6.95;6.22;;;;;;;;;;6309260;22;20418;-80
2023/06/14 21:12:56;;;;;;;;;;;;;;;;;;6310030;22;20003;-89
2023/06/14 21:15:24;;;;;;;9.05;7.40;;;;;;;;;;6309180;22;19934;-88
2023/06/14 21:17:53;;;;;;;8.60;7.30;;;;;;;;;;6309402;22;19999;-80
2023/06/14 21:20:18;;;;;;;8.48;7.03;;;;;;;;;;6309253;22;20330;-81
2023/06/14 21:22:44;;;;;;;7.70;6.25;;;;;;;;;;6309542;22;20010;-80
2023/06/14 21:25:09;;;;;;;6.63;6.03;;;;;;;;;;6309789;22;20485;-83
2023/06/14 21:27:36;;;;;;;6.55;5.90;;;;;;;;;;6309450;22;20369;-80
2023/06/14 21:30:02;;;;;;;6.47;5.88;;;;;;;;;;6309341;22;20053;-80
2023/06/14 21:32:28;;;;;;;5.68;5.18;;;;;;;;;;6309130;22;20007;-81
2023/06/14 21:34:53;;;;;;;6.00;5.40;;;;;;;;;;6308978;22;20359;-89
2023/06/14 21:37:19;;;;;;;6.28;5.68;;;;;;;;;;6309344;22;20003;-80
2023/06/14 21:39:44;;;;;;;6.25;5.65;;;;;;;;;;6309261;22;20003;-81
